createdAt,value
2022-12-04T00:01:08.679Z,3.05
2022-12-04T00:03:36.702Z,2.00
2022-12-04T00:06:10.072Z,2.20
2022-12-04T00:08:38.543Z,2.28
2022-12-04T00:11:08.228Z,2.85
2022-12-04T00:13:36.231Z,2.35
2022-12-04T00:16:08.611Z,2.63
2022-12-04T00:18:36.428Z,2.30
2022-12-04T00:21:06.018Z,2.85
2022-12-04T00:23:34.890Z,3.47
2022-12-04T00:26:04.798Z,3.20
2022-12-04T00:28:33.043Z,2.28
2022-12-04T00:31:00.759Z,3.53
2022-12-04T00:33:28.259Z,2.95
2022-12-04T00:36:00.209Z,3.20
2022-12-04T00:38:28.535Z,2.97
2022-12-04T00:40:56.325Z,5.40
2022-12-04T00:43:24.459Z,4.22
2022-12-04T00:45:51.983Z,1.98
2022-12-04T00:48:19.723Z,4.38
2022-12-04T00:50:47.769Z,4.30
2022-12-04T00:53:15.564Z,3.08
2022-12-04T00:55:44.219Z,2.50
2022-12-04T00:58:12.772Z,3.83
2022-12-04T01:00:43.657Z,4.18
2022-12-04T01:03:11.550Z,3.10
2022-12-04T01:05:41.186Z,3.47
2022-12-04T01:08:10.164Z,2.17
2022-12-04T01:10:42.274Z,2.83
2022-12-04T01:13:09.789Z,3.30
2022-12-04T01:15:43.627Z,4.25
2022-12-04T01:18:12.040Z,4.85
2022-12-04T01:20:40.063Z,3.22
2022-12-04T01:23:07.806Z,4.68
2022-12-04T01:25:35.337Z,3.60
2022-12-04T01:28:02.895Z,2.78
2022-12-04T01:30:30.483Z,4.57
2022-12-04T01:32:58.084Z,2.80
2022-12-04T01:35:25.587Z,3.08
2022-12-04T01:37:53.171Z,3.10
2022-12-04T01:40:20.673Z,1.88
2022-12-04T01:42:48.364Z,3.20
2022-12-04T01:45:47.675Z,5.40
2022-12-04T01:48:24.438Z,4.03
2022-12-04T01:50:58.407Z,3.00
2022-12-04T01:53:26.385Z,2.85
2022-12-04T01:55:55.264Z,2.88
2022-12-04T01:58:29.721Z,4.85
2022-12-04T02:01:07.987Z,2.85
2022-12-04T02:03:37.293Z,2.83
2022-12-04T02:06:05.745Z,4.28
2022-12-04T02:08:34.897Z,4.30
2022-12-04T02:11:30.864Z,2.50
2022-12-04T02:14:13.494Z,5.55
2022-12-04T02:16:51.492Z,3.13
2022-12-04T02:19:50.188Z,2.30
2022-12-04T02:22:47.216Z,3.28
2022-12-04T02:25:20.799Z,3.38
2022-12-04T02:27:57.626Z,2.83
2022-12-04T02:30:27.286Z,1.75
2022-12-04T02:33:03.742Z,4.63
2022-12-04T02:35:46.652Z,3.88
2022-12-04T02:38:32.875Z,3.97
2022-12-04T02:41:08.201Z,3.30
2022-12-04T02:43:51.194Z,3.03
2022-12-04T02:46:31.284Z,3.65
2022-12-04T02:49:02.557Z,2.72
2022-12-04T02:51:34.207Z,3.72
2022-12-04T02:54:23.332Z,3.33
2022-12-04T02:56:53.286Z,5.13
2022-12-04T02:59:32.107Z,2.25
2022-12-04T03:02:04.111Z,2.50
2022-12-04T03:04:32.710Z,3.88
2022-12-04T03:07:06.593Z,3.70
2022-12-04T03:09:39.239Z,5.25
2022-12-04T03:12:35.216Z,3.45
2022-12-04T03:15:08.920Z,2.92
2022-12-04T03:17:55.702Z,3.70
2022-12-04T03:20:24.365Z,5.18
2022-12-04T03:23:22.127Z,4.07
2022-12-04T03:26:10.650Z,2.05
2022-12-04T03:28:49.930Z,3.40
2022-12-04T03:31:29.196Z,3.60
2022-12-04T03:34:00.608Z,4.05
2022-12-04T03:36:35.170Z,4.68
2022-12-04T03:39:17.604Z,9.02
2022-12-04T03:42:38.744Z,3.08
2022-12-04T03:45:35.220Z,3.05
2022-12-04T03:48:18.172Z,11.60
2022-12-04T03:51:03.112Z,3.90
2022-12-04T03:53:39.486Z,6.00
2022-12-04T03:56:29.470Z,7.78
2022-12-04T03:59:03.374Z,3.75
2022-12-04T04:01:35.855Z,3.90
2022-12-04T04:04:07.604Z,3.90
2022-12-04T04:06:40.437Z,4.85
2022-12-04T04:09:18.830Z,11.55
2022-12-04T04:11:52.721Z,3.75
2022-12-04T04:14:55.230Z,4.75
2022-12-04T04:17:49.226Z,5.45
2022-12-04T04:20:41.741Z,3.85
2022-12-04T04:23:30.733Z,3.28
2022-12-04T04:26:00.795Z,4.07
2022-12-04T04:28:38.425Z,2.60
2022-12-04T04:31:37.045Z,4.88
2022-12-04T04:34:20.601Z,3.15
2022-12-04T04:37:09.456Z,4.93
2022-12-04T04:40:01.287Z,22.55
2022-12-04T04:42:34.960Z,3.67
2022-12-04T04:45:27.732Z,4.30
2022-12-04T04:48:09.871Z,5.22
2022-12-04T04:50:39.557Z,3.78
2022-12-04T04:53:13.679Z,3.45
2022-12-04T04:55:42.284Z,3.40
2022-12-04T04:58:13.845Z,3.78
2022-12-04T05:00:59.791Z,4.60
2022-12-04T05:03:28.290Z,3.10
2022-12-04T05:05:56.046Z,4.25
2022-12-04T05:08:23.757Z,4.70
2022-12-04T05:10:51.476Z,6.90
2022-12-04T05:13:21.825Z,4.40
2022-12-04T05:16:03.136Z,5.65
2022-12-04T05:18:32.268Z,3.30
2022-12-04T05:20:59.827Z,4.25
2022-12-04T05:23:27.268Z,3.20
2022-12-04T05:26:02.843Z,3.38
2022-12-04T05:28:30.572Z,2.95
2022-12-04T05:31:00.046Z,5.75
2022-12-04T05:33:28.400Z,2.55
2022-12-04T05:36:07.820Z,3.45
2022-12-04T05:38:36.263Z,3.00
2022-12-04T05:41:06.186Z,3.88
2022-12-04T05:43:34.468Z,4.07
2022-12-04T05:46:07.100Z,2.95
2022-12-04T05:48:35.813Z,4.10
2022-12-04T05:51:10.613Z,4.05
2022-12-04T05:53:38.723Z,4.68
2022-12-04T05:56:07.589Z,2.95
2022-12-04T05:58:38.875Z,7.97
2022-12-04T06:01:16.024Z,4.38
2022-12-04T06:03:44.005Z,2.75
2022-12-04T06:06:21.472Z,4.95
2022-12-04T06:08:51.800Z,2.00
2022-12-04T06:11:22.193Z,2.90
2022-12-04T06:13:49.873Z,2.28
2022-12-04T06:16:20.397Z,2.95
2022-12-04T06:18:53.381Z,2.70
2022-12-04T06:21:23.172Z,3.80
2022-12-04T06:23:51.824Z,2.20
2022-12-04T06:26:20.106Z,3.03
2022-12-04T06:28:47.689Z,3.05
2022-12-04T06:31:16.903Z,4.90
2022-12-04T06:33:44.684Z,2.65
2022-12-04T06:36:15.298Z,2.05
2022-12-04T06:38:43.359Z,2.28
2022-12-04T06:41:13.680Z,2.63
2022-12-04T06:43:41.814Z,2.05
2022-12-04T06:46:11.209Z,2.65
2022-12-04T06:48:39.588Z,3.10
2022-12-04T06:51:13.043Z,2.70
2022-12-04T06:53:40.863Z,2.45
2022-12-04T06:56:11.695Z,3.50
2022-12-04T06:58:39.316Z,3.95
2022-12-04T07:01:12.377Z,8.05
2022-12-04T07:03:42.597Z,2.53
2022-12-04T07:06:35.504Z,4.38
2022-12-04T07:09:15.019Z,1.45
2022-12-04T07:11:43.771Z,2.28
2022-12-04T07:14:12.852Z,1.80
2022-12-04T07:16:42.572Z,1.83
2022-12-04T07:19:12.891Z,2.22
2022-12-04T07:21:41.183Z,1.67
2022-12-04T07:24:15.603Z,1.83
2022-12-04T07:26:43.443Z,1.75
2022-12-04T07:29:11.028Z,1.60
2022-12-04T07:31:39.070Z,1.90
2022-12-04T07:34:06.802Z,1.65
2022-12-04T07:36:34.316Z,1.25
2022-12-04T07:39:02.074Z,1.83
2022-12-04T07:41:29.597Z,1.42
2022-12-04T07:43:57.230Z,2.17
2022-12-04T07:46:28.049Z,1.77
2022-12-04T07:48:56.820Z,1.38
2022-12-04T07:51:26.641Z,1.50
2022-12-04T07:53:55.678Z,1.63
2022-12-04T07:56:23.411Z,1.75
2022-12-04T07:58:50.953Z,3.60
2022-12-04T08:01:23.688Z,10.77
2022-12-04T08:03:55.139Z,3.83
2022-12-04T08:06:24.900Z,4.47
2022-12-04T08:08:52.913Z,3.95
2022-12-04T08:11:23.552Z,9.98
2022-12-04T08:13:59.591Z,4.82
2022-12-04T08:16:28.960Z,6.70
2022-12-04T08:18:57.260Z,5.40
2022-12-04T08:21:28.015Z,5.28
2022-12-04T08:23:57.048Z,6.55
2022-12-04T08:26:28.252Z,7.32
2022-12-04T08:28:56.882Z,4.55
2022-12-04T08:31:27.126Z,5.50
2022-12-04T08:33:58.036Z,5.22
2022-12-04T08:36:26.744Z,5.05
2022-12-04T08:38:54.413Z,5.10
2022-12-04T08:41:24.387Z,4.43
2022-12-04T08:43:56.615Z,6.03
2022-12-04T08:46:26.317Z,7.63
2022-12-04T08:48:54.877Z,4.90
2022-12-04T08:51:28.551Z,5.72
2022-12-04T08:54:02.329Z,8.68
2022-12-04T08:56:31.241Z,4.93
2022-12-04T08:58:59.863Z,10.05
2022-12-04T09:01:28.793Z,3.28
2022-12-04T09:03:56.737Z,3.80
2022-12-04T09:06:24.756Z,4.25
2022-12-04T09:08:54.687Z,4.65
2022-12-04T09:11:24.576Z,3.10
2022-12-04T09:13:52.661Z,3.10
2022-12-04T09:16:23.173Z,4.25
2022-12-04T09:18:51.128Z,4.07
2022-12-04T09:21:20.721Z,4.95
2022-12-04T09:23:48.613Z,3.97
2022-12-04T09:26:34.404Z,3.88
2022-12-04T09:29:04.239Z,4.00
2022-12-04T09:31:32.698Z,5.68
2022-12-04T09:34:01.501Z,4.20
2022-12-04T09:36:29.348Z,3.83
2022-12-04T09:38:57.931Z,5.57
2022-12-04T09:41:44.140Z,3.38
2022-12-04T09:44:38.602Z,3.65
2022-12-04T09:47:29.473Z,5.63
2022-12-04T09:50:12.757Z,5.43
2022-12-04T09:52:46.928Z,5.20
2022-12-04T09:55:41.339Z,5.10
2022-12-04T09:58:15.095Z,6.93
2022-12-04T10:00:46.256Z,4.22
2022-12-04T10:03:20.106Z,4.32
2022-12-04T10:06:08.403Z,5.95
2022-12-04T10:08:39.762Z,4.90
2022-12-04T10:11:31.963Z,5.47
2022-12-04T10:14:42.203Z,3.57
2022-12-04T10:17:37.251Z,5.78
2022-12-04T10:20:13.755Z,9.90
2022-12-04T10:22:54.646Z,4.65
2022-12-04T10:25:24.242Z,5.53
2022-12-04T10:27:57.631Z,5.47
2022-12-04T10:30:28.886Z,6.25
2022-12-04T10:33:23.997Z,3.25
2022-12-04T10:36:12.251Z,4.53
2022-12-04T10:39:07.441Z,4.85
2022-12-04T10:42:05.605Z,4.45
2022-12-04T10:44:33.398Z,5.13
2022-12-04T10:47:03.502Z,5.20
2022-12-04T10:49:34.290Z,5.93
2022-12-04T10:52:02.234Z,9.93
2022-12-04T10:54:43.576Z,11.00
2022-12-04T10:57:14.020Z,9.60
2022-12-04T10:59:56.407Z,7.57
2022-12-04T11:02:32.850Z,6.53
2022-12-04T11:05:07.285Z,6.60
2022-12-04T11:07:47.108Z,7.43
2022-12-04T11:10:22.060Z,7.03
2022-12-04T11:12:58.365Z,6.10
2022-12-04T11:15:26.174Z,4.78
2022-12-04T11:17:53.707Z,5.78
2022-12-04T11:20:27.689Z,5.47
2022-12-04T11:22:57.355Z,8.80
2022-12-04T11:25:33.994Z,5.95
2022-12-04T11:28:03.675Z,6.78
2022-12-04T11:30:37.119Z,8.30
2022-12-04T11:33:16.237Z,8.80
2022-12-04T11:35:59.304Z,10.02
2022-12-04T11:38:29.176Z,9.80
2022-12-04T11:40:59.240Z,5.95
2022-12-04T11:43:29.422Z,6.15
2022-12-04T11:46:02.872Z,6.50
2022-12-04T11:48:43.766Z,5.72
2022-12-04T11:51:20.329Z,6.25
2022-12-04T11:53:54.256Z,5.10
2022-12-04T11:56:47.272Z,4.75
2022-12-04T11:59:33.647Z,5.88
2022-12-04T12:02:13.527Z,5.38
2022-12-04T12:05:05.556Z,6.25
2022-12-04T12:08:02.449Z,5.82
2022-12-04T12:11:00.098Z,5.20
2022-12-04T12:13:49.609Z,5.68
2022-12-04T12:16:28.342Z,6.28
2022-12-04T12:19:14.233Z,5.78
2022-12-04T12:21:54.277Z,8.57
2022-12-04T12:24:32.339Z,5.68
2022-12-04T12:27:29.950Z,8.85
2022-12-04T12:30:16.095Z,5.75
2022-12-04T12:33:28.770Z,11.93
2022-12-04T12:36:10.007Z,5.32
2022-12-04T12:39:02.493Z,7.43
2022-12-04T12:41:39.716Z,5.07
2022-12-04T12:44:23.367Z,4.60
2022-12-04T12:46:54.527Z,4.47
2022-12-04T12:49:28.212Z,9.40
2022-12-04T12:52:07.773Z,7.45
2022-12-04T12:54:44.058Z,8.70
2022-12-04T12:57:29.279Z,4.57
2022-12-04T13:00:04.701Z,5.00
2022-12-04T13:02:56.069Z,6.45
2022-12-04T13:05:39.620Z,5.18
2022-12-04T13:10:46.255Z,9.35
2022-12-04T13:13:19.730Z,6.28
2022-12-04T13:15:55.895Z,6.30
2022-12-04T13:18:38.659Z,6.90
2022-12-04T13:21:08.104Z,19.17
2022-12-04T13:24:15.989Z,7.10
2022-12-04T13:26:49.934Z,7.32
2022-12-04T13:29:39.533Z,6.03
2022-12-04T13:32:37.343Z,7.78
2022-12-04T13:35:17.205Z,6.50
2022-12-04T13:38:08.918Z,6.78
2022-12-04T13:41:01.508Z,6.57
2022-12-04T13:43:41.641Z,9.88
2022-12-04T13:46:39.236Z,8.90
2022-12-04T13:49:15.829Z,7.40
2022-12-04T13:51:44.860Z,7.95
2022-12-04T13:54:18.529Z,6.63
2022-12-04T13:56:49.063Z,7.55
2022-12-04T13:59:28.029Z,6.35
2022-12-04T14:02:20.193Z,7.97
2022-12-04T14:04:56.461Z,6.97
2022-12-04T14:07:25.898Z,7.53
2022-12-04T14:09:55.790Z,9.20
2022-12-04T14:12:39.822Z,8.73
2022-12-04T14:15:20.831Z,7.72
2022-12-04T14:18:02.859Z,8.68
2022-12-04T14:20:33.235Z,8.18
2022-12-04T14:23:16.507Z,5.82
2022-12-04T14:25:44.320Z,5.75
2022-12-04T14:28:36.141Z,8.25
2022-12-04T14:31:29.192Z,10.27
2022-12-04T14:34:01.831Z,9.50
2022-12-04T14:36:33.799Z,5.88
2022-12-04T14:39:32.379Z,7.05
2022-12-04T14:42:23.442Z,7.53
2022-12-04T14:45:02.560Z,7.28
2022-12-04T14:47:36.190Z,8.20
2022-12-04T14:50:29.297Z,8.18
2022-12-04T14:53:21.548Z,9.30
2022-12-04T14:56:07.465Z,8.23
2022-12-04T14:58:38.915Z,7.80
2022-12-04T15:01:30.072Z,7.95
2022-12-04T15:04:02.036Z,8.95
2022-12-04T15:06:32.601Z,11.70
2022-12-04T15:09:21.835Z,9.80
2022-12-04T15:12:17.506Z,9.50
2022-12-04T15:14:47.477Z,11.45
2022-12-04T15:17:17.167Z,9.95
2022-12-04T15:19:45.800Z,7.78
2022-12-04T15:22:26.910Z,11.20
2022-12-04T15:24:55.584Z,10.48
2022-12-04T15:27:31.956Z,7.38
2022-12-04T15:30:02.374Z,7.20
2022-12-04T15:32:32.109Z,12.15
2022-12-04T15:35:09.278Z,10.90
2022-12-04T15:37:37.139Z,9.90
2022-12-04T15:40:09.495Z,9.07
2022-12-04T15:42:37.024Z,9.57
2022-12-04T15:45:10.739Z,8.68
2022-12-04T15:47:42.667Z,10.20
2022-12-04T15:50:11.729Z,10.35
2022-12-04T15:52:51.481Z,8.52
2022-12-04T15:55:21.637Z,7.93
2022-12-04T15:57:57.549Z,11.13
2022-12-04T16:00:29.979Z,11.98
2022-12-04T16:02:59.284Z,9.90
2022-12-04T16:05:35.574Z,12.23
2022-12-04T16:08:24.823Z,10.57
2022-12-04T16:10:58.608Z,11.82
2022-12-04T16:13:32.815Z,11.45
2022-12-04T16:16:01.809Z,9.95
2022-12-04T16:18:29.504Z,10.82
2022-12-04T16:20:57.322Z,11.13
2022-12-04T16:23:26.182Z,10.48
2022-12-04T16:25:53.955Z,13.77
2022-12-04T16:28:21.605Z,11.25
2022-12-04T16:30:52.458Z,9.90
2022-12-04T16:33:20.051Z,10.43
2022-12-04T16:35:47.710Z,12.25
2022-12-04T16:38:17.142Z,12.10
2022-12-04T16:40:46.177Z,12.13
2022-12-04T16:43:15.607Z,13.60
2022-12-04T16:45:52.910Z,14.23
2022-12-04T16:48:21.243Z,13.90
2022-12-04T16:50:48.786Z,14.40
2022-12-04T16:53:21.496Z,13.75
2022-12-04T16:55:51.229Z,12.27
2022-12-04T16:58:20.417Z,13.02
2022-12-04T17:00:56.311Z,12.32
2022-12-04T17:03:34.088Z,15.18
2022-12-04T17:06:01.891Z,12.43
2022-12-04T17:08:29.809Z,11.90
2022-12-04T17:10:57.475Z,13.02
2022-12-04T17:13:25.116Z,14.30
2022-12-04T17:15:52.777Z,12.05
2022-12-04T17:18:21.452Z,14.18
2022-12-04T17:20:49.302Z,12.95
2022-12-04T17:23:17.165Z,15.82
2022-12-04T17:25:44.681Z,18.58
2022-12-04T17:28:12.460Z,18.35
2022-12-04T17:30:43.862Z,15.05
2022-12-04T17:33:11.405Z,21.45
2022-12-04T17:35:43.528Z,13.95
2022-12-04T17:38:11.168Z,16.40
2022-12-04T17:40:38.723Z,15.45
2022-12-04T17:43:06.153Z,16.30
2022-12-04T17:45:33.858Z,17.67
2022-12-04T17:48:01.487Z,13.57
2022-12-04T17:50:29.226Z,15.60
2022-12-04T17:52:56.722Z,20.98
2022-12-04T17:55:24.466Z,14.35
2022-12-04T17:57:51.959Z,15.60
2022-12-04T18:00:19.780Z,19.02
2022-12-04T18:02:51.660Z,15.65
2022-12-04T18:05:21.163Z,18.67
2022-12-04T18:07:49.153Z,18.05
2022-12-04T18:10:16.850Z,17.90
2022-12-04T18:12:44.444Z,15.55
2022-12-04T18:15:11.935Z,19.10
2022-12-04T18:17:40.087Z,13.88
2022-12-04T18:20:08.599Z,16.55
2022-12-04T18:22:36.393Z,15.93
2022-12-04T18:25:04.310Z,16.42
2022-12-04T18:27:31.845Z,13.55
2022-12-04T18:30:01.621Z,16.55
2022-12-04T18:32:29.200Z,13.45
2022-12-04T18:34:56.931Z,16.15
2022-12-04T18:37:24.497Z,17.05
2022-12-04T18:39:52.287Z,17.45
2022-12-04T18:42:19.879Z,14.82
2022-12-04T18:44:47.680Z,15.40
2022-12-04T18:47:15.234Z,15.07
2022-12-04T18:49:43.099Z,14.23
2022-12-04T18:52:10.625Z,14.18
2022-12-04T18:54:38.250Z,15.98
2022-12-04T18:57:05.721Z,14.77
2022-12-04T18:59:33.355Z,15.75
2022-12-04T19:02:00.873Z,15.23
2022-12-04T19:04:31.620Z,23.95
2022-12-04T19:06:59.272Z,15.85
2022-12-04T19:09:54.367Z,19.17
2022-12-04T19:12:16.917Z,15.38
2022-12-04T19:14:44.750Z,18.83
2022-12-04T19:17:12.430Z,16.33
2022-12-04T19:19:39.938Z,20.15
2022-12-04T19:22:07.593Z,19.05
2022-12-04T19:24:35.130Z,16.17
2022-12-04T19:27:10.110Z,21.75
2022-12-04T19:29:43.023Z,19.23
2022-12-04T19:32:11.231Z,16.90
2022-12-04T19:34:39.037Z,20.70
2022-12-04T19:37:07.798Z,19.90
2022-12-04T19:39:35.582Z,17.15
2022-12-04T19:42:03.375Z,17.05
2022-12-04T19:47:19.240Z,17.23
2022-12-04T19:49:47.020Z,18.58
2022-12-04T19:52:15.335Z,16.42
2022-12-04T19:54:42.876Z,16.65
2022-12-04T19:57:10.516Z,18.98
2022-12-04T19:59:43.116Z,18.20
2022-12-04T20:02:13.748Z,21.85
2022-12-04T20:04:41.604Z,18.75
2022-12-04T20:07:09.068Z,20.52
2022-12-04T20:09:36.779Z,21.30
2022-12-04T20:12:04.683Z,19.42
2022-12-04T20:14:32.294Z,20.45
2022-12-04T20:17:01.813Z,19.17
2022-12-04T20:19:29.458Z,21.17
2022-12-04T20:21:59.466Z,20.60
2022-12-04T20:24:27.265Z,20.20
2022-12-04T20:26:54.897Z,19.65
2022-12-04T20:29:22.430Z,20.48
2022-12-04T20:31:50.022Z,20.73
2022-12-04T20:34:18.925Z,22.20
2022-12-04T20:36:47.924Z,16.98
2022-12-04T20:39:17.358Z,19.17
2022-12-04T20:41:45.251Z,16.83
2022-12-04T20:44:15.819Z,16.25
2022-12-04T20:46:44.702Z,18.52
2022-12-04T20:49:20.787Z,19.95
2022-12-04T20:51:50.277Z,22.02
2022-12-04T20:54:20.180Z,18.40
2022-12-04T20:56:49.175Z,17.85
2022-12-04T20:59:19.433Z,19.10
2022-12-04T21:01:49.034Z,17.60
2022-12-04T21:04:18.089Z,19.77
2022-12-04T21:06:47.027Z,22.10
2022-12-04T21:09:25.035Z,21.02
2022-12-04T21:11:56.115Z,23.40
2022-12-04T21:14:47.270Z,16.95
2022-12-04T21:17:21.561Z,21.13
2022-12-04T21:19:50.645Z,16.23
2022-12-04T21:22:19.651Z,17.65
2022-12-04T21:24:47.230Z,16.55
2022-12-04T21:27:20.755Z,17.83
2022-12-04T21:29:49.885Z,18.42
2022-12-04T21:32:19.095Z,17.60
2022-12-04T21:34:46.806Z,17.38
2022-12-04T21:37:14.330Z,19.42
2022-12-04T21:39:43.140Z,18.05
2022-12-04T21:42:29.072Z,19.30
2022-12-04T21:44:57.942Z,19.05
2022-12-04T21:47:25.809Z,22.92
2022-12-04T21:49:54.695Z,20.92
2022-12-04T21:52:22.423Z,18.77
2022-12-04T21:54:54.058Z,18.63
2022-12-04T21:57:22.392Z,19.92
2022-12-04T21:59:52.278Z,17.00
2022-12-04T22:02:20.492Z,17.35
2022-12-04T22:04:48.144Z,17.85
2022-12-04T22:07:16.018Z,17.42
2022-12-04T22:09:43.573Z,18.00
2022-12-04T22:12:33.084Z,18.15
2022-12-04T22:14:58.838Z,18.27
2022-12-04T22:17:29.697Z,17.60
2022-12-04T22:19:57.582Z,19.45
2022-12-04T22:22:25.405Z,21.83
2022-12-04T22:24:53.021Z,16.83
2022-12-04T22:27:20.524Z,17.23
2022-12-04T22:29:50.871Z,18.98
2022-12-04T22:32:20.048Z,16.77
2022-12-04T22:34:50.581Z,18.05
2022-12-04T22:37:18.159Z,18.85
2022-12-04T22:39:45.730Z,22.25
2022-12-04T22:42:13.451Z,19.83
2022-12-04T22:44:41.090Z,15.10
2022-12-04T22:47:08.570Z,18.35
2022-12-04T22:49:36.136Z,18.42
2022-12-04T22:52:03.926Z,20.63
2022-12-04T22:54:31.530Z,17.25
2022-12-04T22:56:59.292Z,20.45
2022-12-04T22:59:26.871Z,19.75
2022-12-04T23:01:54.396Z,19.30
2022-12-04T23:04:21.993Z,19.15
2022-12-04T23:06:49.545Z,20.73
2022-12-04T23:09:17.912Z,22.00
2022-12-04T23:11:45.848Z,22.75
2022-12-04T23:14:15.068Z,25.92
2022-12-04T23:16:43.133Z,30.10
2022-12-04T23:19:16.664Z,21.70
2022-12-04T23:21:45.315Z,24.17
2022-12-04T23:24:13.647Z,22.52
2022-12-04T23:26:44.932Z,26.35
2022-12-04T23:29:36.956Z,19.70
2022-12-04T23:32:01.062Z,18.15
2022-12-04T23:34:28.714Z,19.77
2022-12-04T23:36:56.342Z,21.52
2022-12-04T23:39:23.885Z,18.52
2022-12-04T23:41:51.568Z,19.52
2022-12-04T23:44:19.233Z,21.88
2022-12-04T23:46:46.866Z,20.58
2022-12-04T23:49:14.569Z,30.83
2022-12-04T23:51:42.194Z,21.02
2022-12-04T23:54:10.548Z,20.65
2022-12-04T23:56:38.216Z,21.42
2022-12-04T23:59:05.751Z,22.50
